createdAt,value
2023-03-30T00:03:05.150Z,26.63
2023-03-30T00:08:08.647Z,25.67
2023-03-30T00:13:13.546Z,22.57
2023-03-30T00:18:16.966Z,23.20
2023-03-30T00:23:20.817Z,20.87
2023-03-30T00:28:25.561Z,24.07
2023-03-30T00:33:44.109Z,23.00
2023-03-30T00:38:49.507Z,23.47
2023-03-30T00:44:34.369Z,25.03
2023-03-30T00:49:37.685Z,32.97
2023-03-30T00:54:41.527Z,28.20
2023-03-30T00:59:45.492Z,24.23
2023-03-30T01:04:51.812Z,24.63
2023-03-30T01:09:55.311Z,27.27
2023-03-30T01:14:58.567Z,25.73
2023-03-30T01:20:27.045Z,24.50
2023-03-30T01:25:46.348Z,24.27
2023-03-30T01:31:20.226Z,23.27
2023-03-30T01:36:42.176Z,26.83
2023-03-30T01:42:21.315Z,25.37
2023-03-30T01:47:34.852Z,28.07
2023-03-30T01:52:54.065Z,30.77
2023-03-30T01:58:27.636Z,27.57
2023-03-30T02:03:34.274Z,33.40
2023-03-30T02:08:39.695Z,27.00
2023-03-30T02:13:44.277Z,28.93
2023-03-30T02:18:47.764Z,24.40
2023-03-30T02:23:53.904Z,25.07
2023-03-30T02:28:57.689Z,26.23
2023-03-30T02:34:15.066Z,30.43
2023-03-30T02:39:48.202Z,26.37
2023-03-30T02:45:11.672Z,29.87
2023-03-30T02:50:28.081Z,25.53
2023-03-30T02:55:37.556Z,28.40
2023-03-30T03:00:59.619Z,30.00
2023-03-30T03:06:05.079Z,31.80
2023-03-30T03:11:09.139Z,29.53
2023-03-30T03:16:12.993Z,26.10
2023-03-30T03:21:16.800Z,39.00
2023-03-30T03:26:20.548Z,25.67
2023-03-30T03:31:24.749Z,22.27
2023-03-30T03:36:28.329Z,28.23
2023-03-30T03:41:31.648Z,28.87
2023-03-30T03:46:35.654Z,27.83
2023-03-30T03:51:38.997Z,26.73
2023-03-30T03:56:42.771Z,25.10
2023-03-30T04:01:46.444Z,27.53
2023-03-30T04:06:49.711Z,32.30
2023-03-30T04:11:53.012Z,32.17
2023-03-30T04:16:58.349Z,22.53
2023-03-30T04:22:01.504Z,34.40
2023-03-30T04:27:04.822Z,29.20
2023-03-30T04:32:08.316Z,38.60
2023-03-30T04:37:11.822Z,32.90
2023-03-30T04:42:16.051Z,26.70
2023-03-30T04:47:19.282Z,27.00
2023-03-30T04:52:22.588Z,23.97
2023-03-30T04:57:25.900Z,27.80
2023-03-30T05:02:29.299Z,29.20
2023-03-30T05:07:32.564Z,23.53
2023-03-30T05:12:35.810Z,30.40
2023-03-30T05:17:40.394Z,30.77
2023-03-30T05:22:43.902Z,26.27
2023-03-30T05:27:47.146Z,28.67
2023-03-30T05:32:51.001Z,25.83
2023-03-30T05:37:55.717Z,26.03
2023-03-30T05:42:59.242Z,25.93
2023-03-30T05:48:02.442Z,26.57
2023-03-30T05:53:06.071Z,25.57
2023-03-30T05:58:09.633Z,26.93
2023-03-30T06:03:13.274Z,35.30
2023-03-30T06:08:16.691Z,54.27
2023-03-30T06:13:20.200Z,53.57
2023-03-30T06:18:24.453Z,29.07
2023-03-30T06:23:27.732Z,27.80
2023-03-30T06:28:31.531Z,25.33
2023-03-30T06:33:34.771Z,29.83
2023-03-30T06:38:38.262Z,27.37
2023-03-30T06:43:42.208Z,28.47
2023-03-30T06:48:45.606Z,28.57
2023-03-30T06:53:49.018Z,27.30
2023-03-30T06:58:53.074Z,26.73
2023-03-30T07:03:56.853Z,30.47
2023-03-30T07:09:00.401Z,28.93
2023-03-30T07:14:05.659Z,27.10
2023-03-30T07:19:09.351Z,30.27
2023-03-30T07:24:12.966Z,27.90
2023-03-30T07:29:16.732Z,27.23
2023-03-30T07:34:20.072Z,27.27
2023-03-30T07:39:23.228Z,29.40
2023-03-30T07:44:29.734Z,29.30
2023-03-30T07:49:33.625Z,28.37
2023-03-30T07:54:39.789Z,25.30
2023-03-30T07:59:43.065Z,28.67
2023-03-30T08:04:47.057Z,24.03
2023-03-30T08:09:50.430Z,29.03
2023-03-30T08:14:56.101Z,29.90
2023-03-30T08:19:59.790Z,28.10
2023-03-30T08:25:03.816Z,25.03
2023-03-30T08:30:07.861Z,22.77
2023-03-30T08:35:12.299Z,27.90
2023-03-30T08:40:19.049Z,25.20
2023-03-30T08:45:22.890Z,28.00
2023-03-30T08:50:35.953Z,28.63
2023-03-30T08:55:57.539Z,25.27
2023-03-30T09:01:10.164Z,28.30
2023-03-30T09:06:27.011Z,26.13
2023-03-30T09:11:36.948Z,27.90
2023-03-30T09:16:51.798Z,25.07
2023-03-30T09:21:58.156Z,25.37
2023-03-30T09:27:20.452Z,19.80
2023-03-30T09:32:32.019Z,23.47
2023-03-30T09:37:38.611Z,26.77
2023-03-30T09:42:53.981Z,23.53
2023-03-30T09:47:57.477Z,21.20
2023-03-30T09:53:19.171Z,24.70
2023-03-30T09:58:29.580Z,20.57
2023-03-30T10:03:33.298Z,20.43
2023-03-30T10:08:42.864Z,23.10
2023-03-30T10:13:46.814Z,21.10
2023-03-30T10:18:54.840Z,20.83
2023-03-30T10:24:26.061Z,22.43
2023-03-30T10:29:30.339Z,21.20
2023-03-30T10:34:52.740Z,23.77
2023-03-30T10:39:58.956Z,25.70
2023-03-30T10:45:06.506Z,21.97
2023-03-30T10:50:30.954Z,22.70
2023-03-30T10:56:02.036Z,25.03
2023-03-30T11:01:43.878Z,20.77
2023-03-30T11:06:47.517Z,17.30
2023-03-30T11:11:58.583Z,17.30
2023-03-30T11:17:09.543Z,20.53
2023-03-30T11:22:37.070Z,18.50
2023-03-30T11:27:50.713Z,20.00
2023-03-30T11:33:06.354Z,16.90
2023-03-30T11:38:12.141Z,14.83
2023-03-30T11:43:20.609Z,17.17
2023-03-30T11:48:44.034Z,17.37
2023-03-30T11:54:00.719Z,19.07
2023-03-30T11:59:17.814Z,15.40
2023-03-30T12:04:31.971Z,19.20
2023-03-30T12:09:46.945Z,18.47
2023-03-30T12:15:35.232Z,16.40
2023-03-30T12:20:42.794Z,17.70
2023-03-30T12:26:08.656Z,19.40
2023-03-30T12:31:13.056Z,17.90
2023-03-30T12:36:43.305Z,17.20
2023-03-30T12:41:51.438Z,17.70
2023-03-30T12:47:22.854Z,19.30
2023-03-30T12:52:39.339Z,15.47
2023-03-30T12:57:48.665Z,20.37
2023-03-30T13:03:07.483Z,15.83
2023-03-30T13:08:23.210Z,15.20
2023-03-30T13:13:45.100Z,17.83
2023-03-30T13:18:56.305Z,17.27
2023-03-30T13:24:23.006Z,14.60
2023-03-30T13:29:31.423Z,18.03
2023-03-30T13:35:14.949Z,13.93
2023-03-30T13:40:39.480Z,16.87
2023-03-30T13:46:16.929Z,17.90
2023-03-30T13:51:26.239Z,18.90
2023-03-30T13:56:41.696Z,21.30
2023-03-30T14:01:55.349Z,19.97
2023-03-30T14:06:58.956Z,20.00
2023-03-30T14:12:05.091Z,20.17
2023-03-30T14:17:28.641Z,18.10
2023-03-30T14:22:36.277Z,20.47
2023-03-30T14:27:40.416Z,18.17
2023-03-30T14:32:43.922Z,18.30
2023-03-30T14:37:52.198Z,19.20
2023-03-30T14:42:56.183Z,17.37
2023-03-30T14:47:59.343Z,20.77
2023-03-30T14:53:03.084Z,18.43
2023-03-30T14:58:07.049Z,18.37
2023-03-30T15:03:22.752Z,22.30
2023-03-30T15:08:47.849Z,30.47
2023-03-30T15:13:54.067Z,20.63
2023-03-30T15:19:07.132Z,18.70
2023-03-30T15:24:16.701Z,19.20
2023-03-30T15:29:22.032Z,17.93
2023-03-30T15:34:28.591Z,16.90
2023-03-30T15:39:36.822Z,18.77
2023-03-30T15:44:43.535Z,20.70
2023-03-30T15:49:50.583Z,23.17
2023-03-30T15:54:55.690Z,19.90
2023-03-30T16:00:02.294Z,20.63
2023-03-30T16:05:08.439Z,17.37
2023-03-30T16:10:16.757Z,46.40
2023-03-30T16:15:23.037Z,68.30
2023-03-30T16:20:30.048Z,24.83
2023-03-30T16:25:44.118Z,19.90
2023-03-30T16:30:51.182Z,43.63
2023-03-30T16:35:55.833Z,26.67
2023-03-30T16:41:02.386Z,22.77
2023-03-30T16:46:06.267Z,22.60
2023-03-30T16:51:13.204Z,22.10
2023-03-30T16:56:18.922Z,28.63
2023-03-30T17:01:22.422Z,25.27
2023-03-30T17:06:27.149Z,21.57
2023-03-30T17:11:32.015Z,25.17
2023-03-30T17:16:36.122Z,47.80
2023-03-30T17:21:44.188Z,45.83
2023-03-30T17:26:48.678Z,52.60
2023-03-30T17:31:53.699Z,47.93
2023-03-30T17:36:58.467Z,54.03
2023-03-30T17:42:04.103Z,45.53
2023-03-30T17:47:11.636Z,53.73
2023-03-30T17:52:16.323Z,52.37
2023-03-30T17:57:21.700Z,46.77
2023-03-30T18:02:28.097Z,49.57
2023-03-30T18:07:33.768Z,31.03
2023-03-30T18:12:44.726Z,36.20
2023-03-30T18:17:49.558Z,34.10
2023-03-30T18:22:54.470Z,42.00
2023-03-30T18:27:59.985Z,44.67
2023-03-30T18:33:04.316Z,40.93
2023-03-30T18:38:15.334Z,37.40
2023-03-30T18:43:22.800Z,40.13
2023-03-30T18:48:28.919Z,48.70
2023-03-30T18:53:35.120Z,41.80
2023-03-30T18:58:43.025Z,44.10
2023-03-30T19:03:49.140Z,42.80
2023-03-30T19:08:54.209Z,57.27
2023-03-30T19:14:02.351Z,61.90
2023-03-30T19:19:12.289Z,45.70
2023-03-30T19:24:20.866Z,41.77
2023-03-30T19:29:26.622Z,54.70
2023-03-30T19:34:31.023Z,43.67
2023-03-30T19:39:38.938Z,33.80
2023-03-30T19:44:45.152Z,32.30
2023-03-30T19:49:50.144Z,30.60
2023-03-30T19:54:55.274Z,26.67
2023-03-30T20:00:01.823Z,21.93
2023-03-30T20:05:08.439Z,20.10
2023-03-30T20:10:19.944Z,12.57
2023-03-30T20:15:27.034Z,10.40
2023-03-30T20:20:32.631Z,7.53
2023-03-30T20:25:35.782Z,7.13
2023-03-30T20:30:40.099Z,6.90
2023-03-30T20:35:44.172Z,8.87
2023-03-30T20:41:03.959Z,6.90
2023-03-30T20:46:10.669Z,5.93
2023-03-30T20:51:15.493Z,5.37
2023-03-30T20:56:18.963Z,4.73
2023-03-30T21:01:27.597Z,6.73
2023-03-30T21:06:32.236Z,9.93
2023-03-30T21:11:39.282Z,7.63
2023-03-30T21:16:42.599Z,6.63
2023-03-30T21:21:45.892Z,7.67
2023-03-30T21:26:49.869Z,5.87
2023-03-30T21:31:53.936Z,7.00
2023-03-30T21:36:58.197Z,6.03
2023-03-30T21:42:01.608Z,7.53
2023-03-30T21:47:05.113Z,7.50
2023-03-30T21:52:08.609Z,6.47
2023-03-30T21:57:12.242Z,6.47
2023-03-30T22:02:15.896Z,5.93
2023-03-30T22:07:19.118Z,6.03
2023-03-30T22:12:22.591Z,5.47
2023-03-30T22:17:35.365Z,7.93
2023-03-30T22:22:39.568Z,5.87
2023-03-30T22:27:44.990Z,6.60
2023-03-30T22:32:48.703Z,7.27
2023-03-30T22:37:52.155Z,7.07
2023-03-30T22:42:55.350Z,8.17
2023-03-30T22:47:59.847Z,10.33
2023-03-30T22:53:03.131Z,12.33
2023-03-30T22:58:06.654Z,13.23
2023-03-30T23:03:10.012Z,15.37
2023-03-30T23:08:13.367Z,12.53
2023-03-30T23:13:16.699Z,13.17
2023-03-30T23:18:19.895Z,15.30
2023-03-30T23:23:23.211Z,13.10
2023-03-30T23:28:26.680Z,14.00
2023-03-30T23:33:29.828Z,14.53
2023-03-30T23:38:33.194Z,15.93
2023-03-30T23:43:36.549Z,18.30
2023-03-30T23:48:40.254Z,15.43
2023-03-30T23:53:43.648Z,15.37
2023-03-30T23:58:47.460Z,14.57
